Time;durP1;ratioP1;P1;durP2;ratioP2;P2;SDS_P1;SDS_P2;PMS_P1;PMS_P2;Temp;Humidity;BMP_temperature;BMP_pressure;BME280_temperature;BME280_humidity;BME280_pressure;Samples;Min_cycle;Max_cycle;Signal;HPM_P1;HPM_P2
2023/07/24 00:00:07;;;;;;;11.57;6.15;;;;;;;17.63;100.00;95251.50;1022417;29;20105;-74
2023/07/24 00:00:39;;;;;;;14.38;6.25;;;;;;;17.62;100.00;95249.16;1017953;29;20032;-72
2023/07/24 00:01:09;;;;;;;12.68;6.22;;;;;;;17.59;100.00;95253.22;1022528;28;20046;-74
2023/07/24 00:01:40;;;;;;;12.70;6.63;;;;;;;17.58;100.00;95251.69;1022312;28;20083;-72
2023/07/24 00:02:13;;;;;;;12.93;5.78;;;;;;;17.53;100.00;95241.22;1018944;29;20020;-73
2023/07/24 00:02:43;;;;;;;14.38;6.07;;;;;;;17.54;100.00;95250.78;1022402;29;20031;-73
2023/07/24 00:03:14;;;;;;;13.10;5.60;;;;;;;17.52;100.00;95252.94;1018926;29;20042;-72
2023/07/24 00:03:45;;;;;;;10.73;5.88;;;;;;;17.48;100.00;95244.09;1022639;28;20034;-73
2023/07/24 00:04:15;;;;;;;13.07;6.30;;;;;;;17.53;100.00;95253.72;1018603;29;20044;-75
2023/07/24 00:04:46;;;;;;;13.15;5.55;;;;;;;17.46;100.00;95237.53;1018533;29;20028;-74
2023/07/24 00:05:16;;;;;;;16.35;6.20;;;;;;;17.49;100.00;95248.28;1016660;29;20083;-72
2023/07/24 00:05:46;;;;;;;12.38;6.00;;;;;;;17.50;100.00;95243.75;1022223;28;20031;-74
2023/07/24 00:06:17;;;;;;;13.38;7.07;;;;;;;17.49;100.00;95248.28;1026463;28;20412;-75
2023/07/24 00:06:47;;;;;;;11.30;6.18;;;;;;;17.46;100.00;95248.91;1026424;28;20109;-73
2023/07/24 00:07:18;;;;;;;12.18;6.70;;;;;;;17.42;100.00;95240.03;1030497;28;20034;-73
2023/07/24 00:07:48;;;;;;;11.00;5.75;;;;;;;17.43;100.00;95244.25;1024974;28;20097;-74
2023/07/24 00:08:19;;;;;;;13.32;6.10;;;;;;;17.44;100.00;95243.94;1026406;28;20555;-75
2023/07/24 00:08:49;;;;;;;12.30;6.47;;;;;;;17.44;100.00;95243.16;1021876;29;20039;-75
2023/07/24 00:09:19;;;;;;;9.80;5.93;;;;;;;17.43;100.00;95241.59;1018346;28;20086;-73
2023/07/24 00:09:50;;;;;;;10.63;5.30;;;;;;;17.35;100.00;95227.28;1026262;28;20027;-75
2023/07/24 00:10:20;;;;;;;10.45;6.18;;;;;;;17.37;100.00;95229.59;1017845;29;20039;-73
2023/07/24 00:10:51;;;;;;;11.25;5.25;;;;;;;17.43;100.00;95244.25;1014255;29;20036;-72
2023/07/24 00:11:21;;;;;;;12.73;5.93;;;;;;;17.44;100.00;95237.84;1018426;29;20031;-74
2023/07/24 00:11:52;;;;;;;10.65;5.40;;;;;;;17.42;100.00;95234.72;1018679;28;20477;-74
2023/07/24 00:12:22;;;;;;;10.93;5.80;;;;;;;17.35;100.00;95235.22;1022287;28;20053;-73
2023/07/24 00:12:53;;;;;;;14.55;6.25;;;;;;;17.38;100.00;95234.59;1026462;28;20148;-73
2023/07/24 00:13:23;;;;;;;13.55;5.65;;;;;;;17.41;100.00;95233.19;1018274;29;20023;-75
2023/07/24 00:13:54;;;;;;;13.43;6.38;;;;;;;17.39;100.00;95240.66;1014475;29;20103;-72
2023/07/24 00:14:24;;;;;;;12.00;5.82;;;;;;;17.37;100.00;95240.19;1009345;29;20040;-74
2023/07/24 00:14:54;;;;;;;14.07;6.32;;;;;;;17.35;100.00;95234.47;1013065;29;20127;-73
2023/07/24 00:15:25;;;;;;;11.65;5.55;;;;;;;17.24;100.00;95214.69;1014763;29;20024;-72
2023/07/24 00:15:56;;;;;;;14.73;6.45;;;;;;;17.33;100.00;95228.69;1018407;29;20032;-73
2023/07/24 00:16:27;;;;;;;12.55;5.90;;;;;;;17.33;100.00;95233.97;1021556;28;20142;-75
2023/07/24 00:16:57;;;;;;;11.00;5.93;;;;;;;17.35;100.00;95234.47;1019024;28;20054;-74
2023/07/24 00:17:28;;;;;;;11.55;6.95;;;;;;;17.34;100.00;95235.56;1018511;29;20400;-73
2023/07/24 00:17:58;;;;;;;11.35;6.03;;;;;;;17.32;100.00;95230.56;1018498;29;20032;-73
2023/07/24 00:18:29;;;;;;;12.43;6.43;;;;;;;17.31;100.00;95234.31;1022659;28;20108;-74
2023/07/24 00:18:59;;;;;;;11.75;5.70;;;;;;;17.30;100.00;95229.31;1026508;28;20023;-74
2023/07/24 00:19:30;;;;;;;11.35;6.13;;;;;;;17.30;100.00;95234.63;1026250;28;20031;-73
2023/07/24 00:20:00;;;;;;;10.40;5.55;;;;;;;17.25;100.00;95226.84;1014469;29;20035;-75
2023/07/24 00:20:31;;;;;;;17.52;6.60;;;;;;;17.31;100.00;95230.88;1017925;29;20035;-74
2023/07/24 00:21:01;;;;;;;14.60;6.43;;;;;;;17.30;100.00;95226.66;1018297;29;20438;-74
2023/07/24 00:21:32;;;;;;;15.02;5.97;;;;;;;17.32;100.00;95221.81;1018586;29;20027;-72
2023/07/24 00:22:02;;;;;;;13.00;5.70;;;;;;;17.24;100.00;95217.34;1022510;28;20694;-72
2023/07/24 00:22:33;;;;;;;13.27;6.10;;;;;;;17.28;100.00;95220.91;1022321;29;20097;-73
2023/07/24 00:23:03;;;;;;;14.05;6.18;;;;;;;17.26;100.00;95217.78;1018429;29;20502;-75
2023/07/24 00:23:34;;;;;;;12.10;6.05;;;;;;;17.28;100.00;95221.69;1018595;29;20031;-76
2023/07/24 00:24:05;;;;;;;14.07;6.20;;;;;;;17.31;100.00;95221.06;1018628;28;20517;-75
2023/07/24 00:24:35;;;;;;;10.32;5.72;;;;;;;17.32;100.00;95216.53;1018321;29;20026;-74
2023/07/24 00:25:06;;;;;;;10.90;5.82;;;;;;;17.34;100.00;95224.94;1022696;28;20019;-72
2023/07/24 00:25:37;;;;;;;14.82;6.78;;;;;;;17.31;100.00;95220.28;1018367;29;20098;-72
2023/07/24 00:26:07;;;;;;;13.70;5.63;;;;;;;17.31;100.00;95213.09;1016172;28;20113;-73
2023/07/24 00:26:38;;;;;;;14.23;5.80;;;;;;;17.31;100.00;95215.75;1022265;29;20019;-75
2023/07/24 00:27:08;;;;;;;11.35;6.22;;;;;;;17.33;100.00;95215.41;1026436;28;20030;-73
2023/07/24 00:27:39;;;;;;;12.38;6.32;;;;;;;17.35;100.00;95219.31;1026240;28;20481;-75
2023/07/24 00:28:09;;;;;;;12.77;5.68;;;;;;;17.35;100.00;95215.88;1026390;28;20019;-74
2023/07/24 00:28:40;;;;;;;10.75;6.20;;;;;;;17.36;100.00;95217.44;1022220;28;20019;-73
2023/07/24 00:29:13;;;;;;;11.30;5.55;;;;;;;17.36;100.00;95212.91;1022477;29;20027;-72
2023/07/24 00:29:43;;;;;;;12.45;5.78;;;;;;;17.32;100.00;95211.22;1021700;28;20007;-74
2023/07/24 00:30:14;;;;;;;12.25;5.50;;;;;;;17.37;100.00;95208.38;1018462;29;20023;-73
2023/07/24 00:30:44;;;;;;;14.68;6.70;;;;;;;17.28;100.00;95195.16;1013619;29;20024;-73
2023/07/24 00:31:15;;;;;;;13.93;6.53;;;;;;;17.36;100.00;95212.91;1016065;29;20474;-76
2023/07/24 00:31:45;;;;;;;15.15;6.55;;;;;;;17.36;100.00;95207.59;1011481;29;20468;-72
2023/07/24 00:32:15;;;;;;;13.07;6.18;;;;;;;17.34;100.00;95209.03;1018287;29;20031;-73
2023/07/24 00:32:46;;;;;;;12.57;5.88;;;;;;;17.38;100.00;95207.31;1022557;28;20031;-72
2023/07/24 00:33:16;;;;;;;12.45;5.93;;;;;;;17.35;100.00;95210.59;1026369;28;20043;-72
2023/07/24 00:33:47;;;;;;;11.95;6.07;;;;;;;17.37;100.00;95211.84;1022607;28;20019;-74
2023/07/24 00:34:17;;;;;;;12.18;6.30;;;;;;;17.31;100.00;95207.03;1026347;28;20034;-73
2023/07/24 00:34:48;;;;;;;16.20;6.63;;;;;;;17.36;100.00;95210.25;1026312;28;20128;-73
2023/07/24 00:35:18;;;;;;;17.05;5.75;;;;;;;17.35;100.00;95211.34;1026353;28;20035;-73
2023/07/24 00:35:48;;;;;;;20.95;6.25;;;;;;;17.34;100.00;95206.38;1020871;29;20019;-73
2023/07/24 00:36:19;;;;;;;10.73;5.80;;;;;;;17.33;100.00;95208.22;1022257;29;20074;-72
2023/07/24 00:36:49;;;;;;;12.25;6.57;;;;;;;17.33;100.00;95212.75;1022425;28;20027;-73
2023/07/24 00:37:20;;;;;;;15.30;6.70;;;;;;;17.28;100.00;95199.69;1026358;28;20045;-73
2023/07/24 00:37:50;;;;;;;18.92;6.38;;;;;;;17.30;100.00;95210.75;1026481;28;20026;-72
2023/07/24 00:38:21;;;;;;;12.75;6.57;;;;;;;17.30;100.00;95208.09;1022423;28;20145;-73
2023/07/24 00:38:51;;;;;;;11.13;5.53;;;;;;;17.30;100.00;95208.09;1026440;28;20023;-74
2023/07/24 00:39:22;;;;;;;11.73;6.20;;;;;;;17.32;100.00;95200.59;1026409;28;20023;-74
2023/07/24 00:39:52;;;;;;;11.65;5.82;;;;;;;17.32;100.00;95208.56;1026393;28;20037;-75
2023/07/24 00:40:23;;;;;;;13.50;6.43;;;;;;;17.33;100.00;95207.47;1025788;28;20074;-72
2023/07/24 00:40:53;;;;;;;13.38;6.70;;;;;;;17.32;100.00;95205.91;1026346;28;20030;-72
2023/07/24 00:41:23;;;;;;;14.18;6.00;;;;;;;17.35;100.00;95200.75;1026116;28;20022;-74
2023/07/24 00:41:54;;;;;;;12.77;6.28;;;;;;;17.35;100.00;95205.28;1026426;28;20027;-73
2023/07/24 00:42:24;;;;;;;10.20;5.60;;;;;;;17.36;100.00;95201.53;1022351;29;20058;-74
2023/07/24 00:42:55;;;;;;;11.48;6.32;;;;;;;17.39;100.00;95206.19;1018589;29;20363;-75
2023/07/24 00:43:25;;;;;;;10.30;5.97;;;;;;;17.42;100.00;95205.56;1021447;28;20047;-72
2023/07/24 00:43:56;;;;;;;10.80;6.57;;;;;;;17.42;100.00;95194.94;1021504;29;20031;-75
2023/07/24 00:44:26;;;;;;;11.50;5.70;;;;;;;17.44;100.00;95192.78;1018532;29;20090;-72
2023/07/24 00:44:57;;;;;;;13.10;5.63;;;;;;;17.45;100.00;95202.28;1024674;28;20023;-72
2023/07/24 00:45:27;;;;;;;13.15;6.20;;;;;;;17.45;100.00;95202.28;1022269;28;20023;-74
2023/07/24 00:45:57;;;;;;;11.55;6.43;;;;;;;17.48;100.00;95204.28;1022405;28;20030;-75
2023/07/24 00:46:31;;;;;;;11.52;5.63;;;;;;;17.48;100.00;95201.63;1025367;28;20053;-74
2023/07/24 00:47:02;;;;;;;13.40;6.20;;;;;;;17.39;100.00;95182.31;1021704;28;20026;-73
2023/07/24 00:47:32;;;;;;;10.77;5.80;;;;;;;17.43;100.00;95186.66;1022260;29;20047;-74
2023/07/24 00:48:03;;;;;;;12.70;5.90;;;;;;;17.54;100.00;95196.91;1022332;29;20039;-74
2023/07/24 00:48:33;;;;;;;11.02;6.25;;;;;;;17.50;100.00;95191.47;1017004;28;20588;-75
2023/07/24 00:49:04;;;;;;;12.23;6.13;;;;;;;17.56;100.00;95186.75;1018331;29;20031;-72
2023/07/24 00:49:34;;;;;;;12.27;6.03;;;;;;;17.62;100.00;95194.22;1026223;28;20057;-74
2023/07/24 00:50:06;;;;;;;14.70;6.00;;;;;;;17.64;100.00;95197.34;1026243;28;20026;-73
2023/07/24 00:50:36;;;;;;;12.48;5.85;;;;;;;17.65;100.00;95193.59;1025637;28;20026;-74
2023/07/24 00:51:07;;;;;;;11.95;6.38;;;;;;;17.67;100.00;95195.91;1018408;29;20410;-74
2023/07/24 00:51:37;;;;;;;11.15;6.03;;;;;;;17.69;100.00;95199.03;1018104;29;20090;-73
2023/07/24 00:52:07;;;;;;;11.13;5.72;;;;;;;17.70;100.00;95200.56;1019381;28;20020;-74
2023/07/24 00:52:38;;;;;;;12.45;6.30;;;;;;;17.63;100.00;95187.81;1022359;29;20583;-73
2023/07/24 00:53:08;;;;;;;15.40;6.18;;;;;;;17.71;100.00;95198.72;1014549;29;20016;-73
2023/07/24 00:53:39;;;;;;;10.63;5.75;;;;;;;17.64;100.00;95184.06;1010413;29;20097;-75
2023/07/24 00:54:09;;;;;;;12.90;5.90;;;;;;;17.73;100.00;95193.84;1022407;29;20389;-74
2023/07/24 00:54:40;;;;;;;10.90;5.55;;;;;;;17.73;100.00;95193.84;1022171;29;20011;-74
2023/07/24 00:55:11;;;;;;;15.45;6.40;;;;;;;17.74;100.00;95192.75;1014389;29;20054;-76
2023/07/24 00:55:41;;;;;;;15.70;6.50;;;;;;;17.74;100.00;95196.19;1022117;28;20015;-75
2023/07/24 00:56:12;;;;;;;13.90;6.82;;;;;;;17.70;100.00;95194.50;1018198;29;20039;-74
2023/07/24 00:56:43;;;;;;;11.10;6.40;;;;;;;17.73;100.00;95193.84;1018353;29;20035;-73
2023/07/24 00:57:14;;;;;;;10.40;5.97;;;;;;;17.66;100.00;95187.16;1014415;29;20020;-74
2023/07/24 00:57:44;;;;;;;12.68;6.43;;;;;;;17.72;100.00;95195.72;1018417;29;20028;-73
2023/07/24 00:58:15;;;;;;;11.65;6.25;;;;;;;17.70;100.00;95194.50;1018390;29;20056;-75
2023/07/24 00:58:45;;;;;;;15.52;5.70;;;;;;;17.72;100.00;95192.31;1018636;29;20399;-74
2023/07/24 00:59:16;;;;;;;11.45;6.10;;;;;;;17.73;100.00;95201.81;1014660;29;20012;-74
2023/07/24 00:59:46;;;;;;;13.00;6.50;;;;;;;17.71;100.00;95190.75;1014858;29;20024;-74
2023/07/24 01:00:17;;;;;;;15.65;6.35;;;;;;;17.72;100.00;95197.63;1013077;29;20024;-74
2023/07/24 01:00:47;;;;;;;11.68;6.50;;;;;;;17.73;100.00;95196.50;1017814;29;20027;-73
2023/07/24 01:01:18;;;;;;;14.82;6.45;;;;;;;17.62;100.00;95183.59;1018428;29;20758;-74
2023/07/24 01:01:48;;;;;;;12.48;6.28;;;;;;;17.75;100.00;95200.41;1018424;29;20493;-75
2023/07/24 01:02:20;;;;;;;12.73;6.40;;;;;;;17.77;100.00;95205.41;1018095;29;20024;-73
2023/07/24 01:02:50;;;;;;;12.13;5.47;;;;;;;17.73;100.00;95201.81;1010735;29;20024;-74
2023/07/24 01:03:22;;;;;;;13.05;6.03;;;;;;;17.77;100.00;95205.41;1026190;28;20393;-75
2023/07/24 01:03:53;;;;;;;10.05;6.10;;;;;;;17.72;100.00;95197.63;1023984;28;20066;-75
2023/07/24 01:04:23;;;;;;;11.05;6.05;;;;;;;17.79;100.00;95208.53;1018322;29;20035;-73
2023/07/24 01:04:53;;;;;;;12.15;5.93;;;;;;;17.80;100.00;95210.84;1018571;29;20094;-73
2023/07/24 01:05:24;;;;;;;14.05;6.00;;;;;;;17.84;100.00;95216.28;1020494;29;20082;-72
2023/07/24 01:05:55;;;;;;;10.77;5.88;;;;;;;17.74;100.00;95201.50;1018316;29;20043;-75
2023/07/24 01:06:25;;;;;;;15.95;6.72;;;;;;;17.80;100.00;95200.22;1014595;29;20046;-73
2023/07/24 01:06:56;;;;;;;13.43;6.38;;;;;;;17.84;100.00;95205.66;1018254;29;20032;-73
2023/07/24 01:07:26;;;;;;;14.23;6.40;;;;;;;17.82;100.00;95202.59;1022342;29;20397;-75
2023/07/24 01:07:57;;;;;;;11.23;6.00;;;;;;;17.84;100.00;95205.66;1014534;29;20043;-75
2023/07/24 01:08:27;;;;;;;11.40;6.25;;;;;;;17.84;100.00;95213.63;1014460;29;20024;-74
2023/07/24 01:08:58;;;;;;;13.90;6.13;;;;;;;17.86;100.00;95214.88;1016904;29;20027;-72
2023/07/24 01:09:28;;;;;;;11.27;6.05;;;;;;;17.92;100.00;95220.00;1018614;29;20028;-75
2023/07/24 01:09:59;;;;;;;12.18;6.00;;;;;;;17.92;100.00;95217.34;1022399;29;20528;-75
2023/07/24 01:10:29;;;;;;;10.82;5.78;;;;;;;17.86;100.00;95204.25;1018033;28;20032;-75
2023/07/24 01:11:03;;;;;;;14.48;6.50;;;;;;;17.97;100.00;95227.78;1022078;28;20533;-72
2023/07/24 01:11:50;;;;;;;12.60;5.78;;;;;;;17.88;100.00;95218.00;1018519;29;20413;-75
2023/07/24 01:12:33;;;;;;;15.35;7.88;;;;;;;17.94;100.00;95218.59;1020924;29;20413;-74
2023/07/24 01:13:30;;;;;;;13.60;6.53;;;;;;;17.94;100.00;95218.59;1022446;29;20023;-75
2023/07/24 01:14:13;;;;;;;12.00;6.00;;;;;;;17.90;100.00;95215.78;1018165;29;20051;-74
2023/07/24 01:14:51;;;;;;;11.25;6.25;;;;;;;17.95;100.00;95216.72;1015396;29;20043;-75
2023/07/24 01:15:28;;;;;;;10.70;5.75;;;;;;;17.92;100.00;95214.69;1020012;29;20114;-74
2023/07/24 01:16:18;;;;;;;11.68;6.05;;;;;;;17.96;100.00;95220.91;1016281;29;20023;-73
2023/07/24 01:16:48;;;;;;;14.23;6.25;;;;;;;17.99;100.00;95220.28;1018165;29;20089;-73
2023/07/24 01:17:23;;;;;;;10.35;5.68;;;;;;;17.95;100.00;95222.81;1020013;29;20031;-74
2023/07/24 01:18:11;;;;;;;14.98;6.45;;;;;;;17.92;100.00;95218.13;1014826;29;20036;-74
2023/07/24 01:18:42;;;;;;;15.30;6.32;;;;;;;17.86;100.00;95206.91;1014357;29;20020;-75
2023/07/24 01:19:36;;;;;;;15.60;5.93;;;;;;;17.90;100.00;95215.00;1014880;29;20589;-74
2023/07/24 01:20:06;;;;;;;10.93;6.00;;;;;;;17.87;100.00;95213.00;1021959;28;20027;-75
2023/07/24 01:20:39;;;;;;;12.65;6.03;;;;;;;17.89;100.00;95218.78;1017693;28;20382;-75
2023/07/24 01:21:09;;;;;;;11.95;6.63;;;;;;;17.88;100.00;95217.22;1014200;29;20059;-75
2023/07/24 01:21:49;;;;;;;11.90;6.07;;;;;;;17.80;100.00;95205.53;1022517;28;20055;-73
2023/07/24 01:22:28;;;;;;;14.88;6.75;;;;;;;17.86;100.00;95208.78;1026220;28;20023;-74
2023/07/24 01:23:15;;;;;;;14.00;6.60;;;;;;;17.85;100.00;95204.59;1025327;28;20076;-73
2023/07/24 01:23:55;;;;;;;12.23;5.65;;;;;;;17.85;100.00;95212.56;1026241;28;20037;-73
2023/07/24 01:24:37;;;;;;;;;;;;;;;17.84;100.00;95210.97;1028666;28;20440;-73
2023/07/24 01:25:31;;;;;;;12.57;6.65;;;;;;;17.84;100.00;95210.97;1025358;28;19914;-75
2023/07/24 01:26:04;;;;;;;12.95;6.53;;;;;;;17.83;100.00;95209.44;1025841;28;20118;-74
2023/07/24 01:26:34;;;;;;;16.35;6.30;;;;;;;17.81;100.00;95209.00;1018209;28;20051;-75
2023/07/24 01:27:05;;;;;;;15.02;6.15;;;;;;;17.81;100.00;95209.78;1022138;29;20030;-74
2023/07/24 01:27:35;;;;;;;14.90;6.38;;;;;;;17.79;100.00;95214.59;1017935;29;20035;-72
2023/07/24 01:28:08;;;;;;;11.75;6.30;;;;;;;17.75;100.00;95203.06;1017876;29;20051;-75
2023/07/24 01:28:39;;;;;;;11.32;6.05;;;;;;;17.82;100.00;95221.16;1020406;28;20042;-73
2023/07/24 01:29:10;;;;;;;13.80;6.18;;;;;;;17.82;100.00;95215.84;1021558;29;20043;-74
2023/07/24 01:29:40;;;;;;;12.00;5.72;;;;;;;17.77;100.00;95211.50;1013819;29;20062;-73
2023/07/24 01:30:11;;;;;;;10.32;5.82;;;;;;;17.80;100.00;95215.38;1013992;29;20043;-75
2023/07/24 01:30:42;;;;;;;14.02;6.68;;;;;;;17.80;100.00;95210.84;1017006;28;20415;-73
2023/07/24 01:31:13;;;;;;;13.05;6.15;;;;;;;17.81;100.00;95203.69;1022173;28;20024;-74
2023/07/24 01:31:44;;;;;;;10.60;5.68;;;;;;;17.76;100.00;95195.88;1022119;28;20492;-75
2023/07/24 01:32:14;;;;;;;16.33;7.45;;;;;;;17.79;100.00;95195.25;1022153;28;20031;-74
2023/07/24 01:32:45;;;;;;;10.80;6.38;;;;;;;17.84;100.00;95203.00;1017976;29;20028;-74
2023/07/24 01:33:15;;;;;;;9.95;6.50;;;;;;;17.84;100.00;95200.38;1015074;29;20071;-74
2023/07/24 01:33:46;;;;;;;13.15;5.95;;;;;;;17.80;100.00;95191.50;1014687;29;20052;-72
2023/07/24 01:34:17;;;;;;;11.02;6.28;;;;;;;17.80;100.00;95194.16;1018401;28;20035;-73
2023/07/24 01:34:47;;;;;;;13.00;6.05;;;;;;;17.85;100.00;95202.72;1018249;29;20083;-74
2023/07/24 01:35:18;;;;;;;14.40;6.57;;;;;;;17.84;100.00;95205.66;1018106;29;20133;-74
2023/07/24 01:35:50;;;;;;;12.90;6.72;;;;;;;17.85;100.00;95201.94;1013893;29;20035;-74
2023/07/24 01:36:20;;;;;;;11.75;5.78;;;;;;;17.82;100.00;95202.59;1018417;29;20027;-73
2023/07/24 01:36:51;;;;;;;10.73;6.38;;;;;;;17.86;100.00;95209.56;1022084;29;20050;-74
2023/07/24 01:37:21;;;;;;;11.98;6.43;;;;;;;17.77;100.00;95195.59;1022397;28;20035;-76
2023/07/24 01:37:52;;;;;;;12.32;5.72;;;;;;;17.82;100.00;95207.88;1022108;28;20505;-73
2023/07/24 01:38:24;;;;;;;12.88;6.28;;;;;;;17.82;100.00;95207.88;1022142;29;20027;-74
2023/07/24 01:38:55;;;;;;;12.52;6.10;;;;;;;17.75;100.00;95199.63;1013657;29;20071;-74
2023/07/24 01:39:25;;;;;;;15.02;6.88;;;;;;;17.75;100.00;95202.28;1021831;29;20035;-73
2023/07/24 01:39:56;;;;;;;18.17;6.25;;;;;;;17.80;100.00;95204.75;1017898;28;20094;-72
2023/07/24 01:40:26;;;;;;;13.27;6.10;;;;;;;17.74;100.00;95206.81;1021481;29;20027;-74
2023/07/24 01:40:57;;;;;;;11.23;6.18;;;;;;;17.80;100.00;95210.06;1026021;28;20057;-74
2023/07/24 01:41:27;;;;;;;10.90;5.88;;;;;;;17.70;100.00;95197.91;1026096;28;20026;-72
2023/07/24 01:41:57;;;;;;;12.50;6.40;;;;;;;17.73;100.00;95199.16;1013734;29;20494;-74
2023/07/24 01:42:28;;;;;;;13.10;6.75;;;;;;;17.74;100.00;95201.50;1019583;29;20031;-74
2023/07/24 01:42:59;;;;;;;12.98;6.65;;;;;;;17.75;100.00;95207.59;1017888;29;20047;-73
2023/07/24 01:43:30;;;;;;;11.10;6.07;;;;;;;17.71;100.00;95190.75;1024009;28;20039;-73
2023/07/24 01:44:00;;;;;;;12.02;6.47;;;;;;;17.74;100.00;95195.41;1026017;28;20030;-75
2023/07/24 01:44:31;;;;;;;9.45;5.93;;;;;;;17.58;100.00;95169.44;1027088;28;20037;-73
2023/07/24 01:45:02;;;;;;;9.65;5.85;;;;;;;17.75;100.00;95199.63;1025952;28;20026;-74
2023/07/24 01:45:33;;;;;;;13.82;6.75;;;;;;;17.74;100.00;95198.06;1024243;28;20174;-73
2023/07/24 01:46:03;;;;;;;12.43;6.43;;;;;;;17.74;100.00;95198.84;1021790;29;20484;-73
2023/07/24 01:46:33;;;;;;;11.05;6.18;;;;;;;17.74;100.00;95204.16;1018137;29;20027;-74
2023/07/24 01:47:04;;;;;;;15.15;6.65;;;;;;;17.76;100.00;95201.97;1018015;29;20134;-75
2023/07/24 01:47:34;;;;;;;15.30;6.20;;;;;;;17.80;100.00;95204.75;1014490;29;20060;-74
2023/07/24 01:48:05;;;;;;;11.75;5.80;;;;;;;17.81;100.00;95209.00;1018064;28;20079;-73
2023/07/24 01:48:36;;;;;;;10.85;5.75;;;;;;;17.82;100.00;95216.63;1021206;28;20106;-73
2023/07/24 01:49:06;;;;;;;12.70;6.10;;;;;;;17.81;100.00;95216.97;1022122;28;20761;-73
2023/07/24 01:49:36;;;;;;;10.65;5.90;;;;;;;17.81;100.00;95222.25;1021464;29;20448;-73
2023/07/24 01:50:07;;;;;;;12.57;6.13;;;;;;;17.71;100.00;95212.00;1021700;29;20034;-74
2023/07/24 01:50:38;;;;;;;9.25;5.72;;;;;;;17.81;100.00;95227.56;1017523;29;20800;-76
2023/07/24 01:51:08;;;;;;;11.55;5.95;;;;;;;17.79;100.00;95238.50;1017802;29;20433;-73
2023/07/24 01:51:39;;;;;;;10.98;6.53;;;;;;;17.79;100.00;95246.47;1010830;29;20032;-72
2023/07/24 01:52:09;;;;;;;11.98;6.15;;;;;;;17.77;100.00;95253.19;1010528;29;20032;-74
2023/07/24 01:52:39;;;;;;;13.05;6.43;;;;;;;17.74;100.00;95264.41;1025852;28;20018;-74
2023/07/24 01:53:10;;;;;;;13.77;6.47;;;;;;;17.72;100.00;95270.03;1021862;28;20070;-74
2023/07/24 01:53:40;;;;;;;10.77;6.15;;;;;;;17.70;100.00;95268.78;1021626;28;20560;-74
2023/07/24 01:54:11;;;;;;;11.27;6.53;;;;;;;17.66;100.00;95269.44;1022170;28;20058;-74
2023/07/24 01:54:42;;;;;;;10.48;6.40;;;;;;;17.64;100.00;95276.16;1014056;29;20083;-72
2023/07/24 01:55:12;;;;;;;14.35;6.38;;;;;;;17.62;100.00;95281.78;1014324;29;20115;-74
2023/07/24 01:55:43;;;;;;;13.93;6.80;;;;;;;17.64;100.00;95282.25;1014172;29;20032;-75
2023/07/24 01:56:13;;;;;;;14.90;6.65;;;;;;;17.62;100.00;95289.75;1018410;28;20489;-75
2023/07/24 01:56:44;;;;;;;16.20;7.03;;;;;;;17.59;100.00;95303.63;1030106;28;20496;-75
2023/07/24 01:57:14;;;;;;;17.40;7.53;;;;;;;17.55;100.00;95307.25;1031309;28;20038;-73
2023/07/24 01:57:45;;;;;;;10.40;6.75;;;;;;;17.54;100.00;95325.06;1030632;28;20037;-72
2023/07/24 01:58:15;;;;;;;10.90;6.35;;;;;;;17.54;100.00;95340.97;1030634;28;20022;-72
2023/07/24 01:58:45;;;;;;;13.63;6.40;;;;;;;17.44;100.00;95336.78;1022731;28;20027;-73
2023/07/24 01:59:16;;;;;;;12.73;6.43;;;;;;;17.47;100.00;95351.28;1022350;29;20591;-72
2023/07/24 01:59:48;;;;;;;11.98;6.30;;;;;;;17.46;100.00;95359.53;1026625;28;20050;-74
2023/07/24 02:00:19;;;;;;;11.73;6.47;;;;;;;17.39;100.00;95349.41;1022424;28;20540;-73
2023/07/24 02:00:49;;;;;;;12.77;6.40;;;;;;;17.42;100.00;95367.34;1022707;29;20027;-73
2023/07/24 02:01:20;;;;;;;14.65;6.53;;;;;;;17.42;100.00;95370.00;1022694;29;20153;-72
2023/07/24 02:01:50;;;;;;;25.95;7.03;;;;;;;17.34;100.00;95360.97;1022982;28;20031;-72
2023/07/24 02:02:21;;;;;;;14.57;6.38;;;;;;;17.33;100.00;95362.06;1021744;28;20027;-74
2023/07/24 02:02:51;;;;;;;13.05;6.03;;;;;;;17.22;100.00;95352.88;1023002;29;20031;-74
2023/07/24 02:03:21;;;;;;;13.85;6.47;;;;;;;17.25;100.00;95362.09;1014418;29;20028;-72
2023/07/24 02:03:52;;;;;;;12.38;6.53;;;;;;;17.18;100.00;95366.00;1016488;29;20130;-72
2023/07/24 02:04:22;;;;;;;17.17;7.35;;;;;;;17.08;100.00;95350.41;1014908;29;20043;-73
2023/07/24 02:04:53;;;;;;;15.80;6.88;;;;;;;17.13;100.00;95362.72;1018887;29;20044;-74
2023/07/24 02:05:23;;;;;;;10.55;6.63;;;;;;;17.03;100.00;95365.66;1019915;28;20063;-74
2023/07/24 02:05:54;;;;;;;13.10;7.15;;;;;;;17.04;100.00;95360.06;1026947;28;20511;-74
2023/07/24 02:06:24;;;;;;;12.55;7.35;;;;;;;16.99;100.00;95338.25;1022846;28;20039;-72
2023/07/24 02:06:55;;;;;;;14.93;6.95;;;;;;;16.94;100.00;95332.00;1026679;28;20042;-74
2023/07/24 02:07:25;;;;;;;16.15;7.20;;;;;;;16.89;100.00;95316.25;1026913;28;20027;-72
2023/07/24 02:07:56;;;;;;;12.52;6.47;;;;;;;16.80;100.00;95312.03;1022824;28;20042;-72
2023/07/24 02:08:26;;;;;;;14.70;6.90;;;;;;;16.60;100.00;95293.03;1023022;28;20705;-75
2023/07/24 02:08:57;;;;;;;13.02;7.07;;;;;;;16.57;100.00;95295.50;1018696;28;20548;-74
2023/07/24 02:09:27;;;;;;;13.82;7.22;;;;;;;16.51;100.00;95281.63;1022998;29;20035;-75
2023/07/24 02:09:57;;;;;;;14.32;7.35;;;;;;;16.42;100.00;95272.91;1015132;29;20028;-74
2023/07/24 02:10:28;;;;;;;12.13;7.20;;;;;;;16.29;100.00;95250.00;1014766;29;20039;-74
2023/07/24 02:10:58;;;;;;;14.30;7.47;;;;;;;16.34;100.00;95260.44;1025184;28;20035;-73
2023/07/24 02:11:29;;;;;;;13.00;6.97;;;;;;;16.30;100.00;95251.53;1026989;28;20065;-74
2023/07/24 02:11:59;;;;;;;12.52;7.20;;;;;;;16.28;100.00;95243.91;1026791;28;20035;-71
2023/07/24 02:12:30;;;;;;;12.43;7.32;;;;;;;16.25;100.00;95231.31;1022763;28;20039;-73
2023/07/24 02:13:00;;;;;;;14.88;7.18;;;;;;;16.23;100.00;95230.81;1022806;28;20038;-75
2023/07/24 02:13:31;;;;;;;12.48;6.93;;;;;;;16.23;100.00;95226.34;1022981;29;20027;-74
2023/07/24 02:14:01;;;;;;;14.10;7.40;;;;;;;16.15;100.00;95213.09;1022942;28;20477;-74
2023/07/24 02:14:32;;;;;;;17.92;7.72;;;;;;;16.19;100.00;95212.13;1026891;28;20060;-73
2023/07/24 02:15:02;;;;;;;13.18;7.65;;;;;;;16.18;100.00;95205.28;1022827;28;20039;-73
2023/07/24 02:15:33;;;;;;;19.60;7.85;;;;;;;16.18;100.00;95204.53;1026951;28;20034;-74
2023/07/24 02:16:03;;;;;;;21.33;8.23;;;;;;;16.16;100.00;95196.09;1026806;28;20468;-74
2023/07/24 02:16:34;;;;;;;15.82;7.88;;;;;;;16.16;100.00;95190.81;1027186;28;20034;-75
2023/07/24 02:17:04;;;;;;;20.98;8.18;;;;;;;16.15;100.00;95187.38;1026731;28;20093;-73
2023/07/24 02:17:35;;;;;;;15.10;7.75;;;;;;;16.14;100.00;95188.47;1018847;29;20057;-76
2023/07/24 02:18:05;;;;;;;13.73;7.55;;;;;;;16.11;100.00;95181.16;1022981;29;20583;-72
2023/07/24 02:18:37;;;;;;;20.00;7.93;;;;;;;16.15;100.00;95182.09;1022923;28;20557;-73
2023/07/24 02:19:07;;;;;;;13.30;7.22;;;;;;;16.13;100.00;95172.91;1023280;28;20023;-72
2023/07/24 02:19:38;;;;;;;15.23;7.72;;;;;;;16.16;100.00;95166.97;1026729;28;20452;-72
2023/07/24 02:20:08;;;;;;;17.42;7.80;;;;;;;16.16;100.00;95173.09;1026783;28;20095;-74
2023/07/24 02:20:39;;;;;;;13.65;7.53;;;;;;;16.15;100.00;95163.56;1017422;29;20031;-72
2023/07/24 02:21:09;;;;;;;14.02;7.40;;;;;;;16.08;100.00;95165.13;1022649;28;20027;-72
2023/07/24 02:21:40;;;;;;;15.25;8.82;;;;;;;16.14;100.00;95175.25;1022894;29;20489;-75
2023/07/24 02:22:11;;;;;;;15.05;7.65;;;;;;;16.10;100.00;95169.03;1019430;28;20066;-72
2023/07/24 02:22:41;;;;;;;14.43;7.82;;;;;;;16.17;100.00;95174.63;1018091;29;20159;-72
2023/07/24 02:23:12;;;;;;;17.58;7.78;;;;;;;16.16;100.00;95173.09;1015296;29;20028;-73
2023/07/24 02:23:42;;;;;;;13.45;7.72;;;;;;;16.17;100.00;95179.16;1018523;29;20039;-72
2023/07/24 02:24:13;;;;;;;16.05;8.88;;;;;;;16.15;100.00;95160.91;1019858;28;20032;-74